createdAt,value
2024-03-16T06:03:44.282Z,7.19
2024-03-16T06:06:43.433Z,13.08
2024-03-16T06:09:45.120Z,11.08
2024-03-16T06:12:43.704Z,12.31
2024-03-16T06:15:43.762Z,11.18
2024-03-16T06:18:43.555Z,11.25
2024-03-16T06:21:43.729Z,10.94
2024-03-16T06:24:43.907Z,10.07
2024-03-16T06:27:44.005Z,12.54
2024-03-16T06:30:43.697Z,11.93
2024-03-16T06:33:43.794Z,9.54
2024-03-16T06:36:43.613Z,13.81
2024-03-16T06:39:44.353Z,9.93
2024-03-16T06:42:43.559Z,12.81
2024-03-16T06:45:43.583Z,14.96
2024-03-16T06:48:43.493Z,11.49
2024-03-16T06:51:43.755Z,10.32
2024-03-16T06:54:45.994Z,12.69
2024-03-16T06:57:43.895Z,11.56
2024-03-16T07:00:43.818Z,11.70
2024-03-16T07:03:43.704Z,10.74
2024-03-16T07:06:43.402Z,9.12
2024-03-16T07:09:43.888Z,13.08
2024-03-16T07:12:43.871Z,11.58
2024-03-16T07:15:44.789Z,14.36
2024-03-16T07:18:43.476Z,11.35
2024-03-16T07:21:44.309Z,13.20
2024-03-16T07:24:43.512Z,13.16
2024-03-16T07:27:43.865Z,15.98
2024-03-16T07:30:43.454Z,14.62
2024-03-16T07:33:43.527Z,16.34
2024-03-16T07:36:43.611Z,14.51
2024-03-16T07:39:43.666Z,14.88
2024-03-16T07:42:43.671Z,9.51
2024-03-16T07:45:43.576Z,15.06
2024-03-16T07:48:43.512Z,11.29
2024-03-16T07:51:43.614Z,15.27
2024-03-16T07:54:43.629Z,18.08
2024-03-16T07:57:43.928Z,12.36
2024-03-16T08:00:43.564Z,11.86
2024-03-16T08:03:43.788Z,11.69
2024-03-16T08:06:43.636Z,12.79
2024-03-16T08:09:43.732Z,16.15
2024-03-16T08:12:43.651Z,11.93
2024-03-16T08:15:43.791Z,11.28
2024-03-16T08:18:43.627Z,10.57
2024-03-16T08:21:43.721Z,12.18
2024-03-16T08:24:43.662Z,11.39
2024-03-16T08:27:43.845Z,11.79
2024-03-16T08:30:43.668Z,13.26
2024-03-16T08:33:43.901Z,13.14
2024-03-16T08:36:43.588Z,15.98
2024-03-16T08:39:43.636Z,12.40
2024-03-16T08:42:43.570Z,16.67
2024-03-16T08:45:43.845Z,10.49
2024-03-16T08:48:43.575Z,10.53
2024-03-16T08:51:43.709Z,22.86
2024-03-16T08:54:43.640Z,21.65
2024-03-16T08:57:43.854Z,21.25
2024-03-16T09:00:43.617Z,19.00
2024-03-16T09:03:43.781Z,19.42
2024-03-16T09:06:43.477Z,19.06
2024-03-16T09:09:43.747Z,21.90
2024-03-16T09:12:43.527Z,24.51
2024-03-16T09:15:43.877Z,19.42
2024-03-16T09:18:43.698Z,18.37
2024-03-16T09:21:43.684Z,18.40
2024-03-16T09:24:43.486Z,20.42
2024-03-16T09:27:43.545Z,16.61
2024-03-16T09:30:43.490Z,17.19
2024-03-16T09:33:43.904Z,21.89
2024-03-16T09:36:43.460Z,14.05
2024-03-16T09:39:43.684Z,16.71
2024-03-16T09:42:43.532Z,17.91
